Toledo, OH (43614)

11:52 PM EDT on July 02, 2015 (GMT -0400)
Lucas Co Rec Center | | Change Station
CLOSE
Current Station
Personal Weather Station
Location: Maumee, OH
Elevation: 636 ft
Nearby Weather Stations

Elev 636 ft 41.59 °N, 83.65 °W | Updated 11 seconds ago

Clear
Clear
63.7 °F
Feels Like 63.7 °F
N
0.0
Wind Variable Wind from ENE
Gusts 0.7 mph

Today
High -- | Low -- °F
--% Chance of Precip.
Yesterday
High -- | Low -- °F
Precip. -- in
6:04 AM 9:12 PM
Full, 99% visible
Pressure 30.00 in
Visibility 10.0 miles
Clouds Clear
Dew Point 57 °F
Humidity 78%
Rainfall 0.00 in
Snow Depth Not available.
UV 0 out of 12
Pollen 3.30 out of 12
Air Quality Not available.
Flu Activity Not available.
METAR KTDZ 030253Z AUTO 06003KT 10SM CLR 18/13 A3000 RMK AO2 SLPNO T01780133 53010

More Conditions Fewer Conditions

Pressure 30.00 in
Visibility 10.0 miles
Clouds Clear
Dew Point 57 °F
Humidity 78%
Rainfall 0.00 in
Snow Depth Not available.
UV 0 out of 12
Pollen 3.30 out of 12
Air Quality Not available.
Flu Activity Not available.
METAR KTDZ 030253Z AUTO 06003KT 10SM CLR 18/13 A3000 RMK AO2 SLPNO T01780133 53010

More Conditions Fewer Conditions

10-Day Weather Forecast

×

Almanac

Astronomy

Jul. 02, 2015 Rise Set
Actual Time
Civil Twilight
Nautical Twilight
Astronomical Twilight
Moon
Length of Visible Light
Length of Day
Tomorrow will be .
, % of the Moon is Illuminated

Today's Extremes

State Highs State Lows

Community

WunderPhotos

Upload Photos

1,834,615 photos uploaded!

WunderBlogs® & News

Nearby

Air Quality

  Air Quality AQ Index Pollutant
Not available.

Snow Depth

Station Depth Elevation

Earthquake Activity

City Distance Mag. Time & Date
Minimum magnitude displayed is 2.5.

Coastal Water Temperatures

Place Temperature

Stations

Nearby Weather Stations

Station Location Temp. Windchill Dew Point Humidity Wind Precip. Elev Updated Type